sensor_id;sensor_type;location;lat;lon;timestamp;P1;durP1;ratioP1;P2;durP2;ratioP2
80700;SDS011;71609;42.630;23.380;2023-08-30T00:01:49;6.85;;;3.60;;
80700;SDS011;71609;42.630;23.380;2023-08-30T00:04:15;6.90;;;3.45;;
80700;SDS011;71609;42.630;23.380;2023-08-30T00:06:40;8.20;;;3.33;;
80700;SDS011;71609;42.630;23.380;2023-08-30T00:09:06;6.70;;;3.88;;
80700;SDS011;71609;42.630;23.380;2023-08-30T00:11:32;7.65;;;3.53;;
80700;SDS011;71609;42.630;23.380;2023-08-30T00:14:04;6.20;;;3.47;;
80700;SDS011;71609;42.630;23.380;2023-08-30T00:16:32;6.63;;;3.80;;
80700;SDS011;71609;42.630;23.380;2023-08-30T00:18:58;6.53;;;3.50;;
80700;SDS011;71609;42.630;23.380;2023-08-30T00:21:24;7.95;;;3.50;;
80700;SDS011;71609;42.630;23.380;2023-08-30T00:23:50;6.35;;;3.55;;
80700;SDS011;71609;42.630;23.380;2023-08-30T00:26:16;6.78;;;3.45;;
80700;SDS011;71609;42.630;23.380;2023-08-30T00:28:42;6.30;;;3.50;;
80700;SDS011;71609;42.630;23.380;2023-08-30T00:31:08;6.82;;;3.45;;
80700;SDS011;71609;42.630;23.380;2023-08-30T00:33:33;7.72;;;3.40;;
80700;SDS011;71609;42.630;23.380;2023-08-30T00:35:59;5.40;;;3.33;;
80700;SDS011;71609;42.630;23.380;2023-08-30T00:38:28;8.55;;;3.70;;
80700;SDS011;71609;42.630;23.380;2023-08-30T00:43:20;6.40;;;3.38;;
80700;SDS011;71609;42.630;23.380;2023-08-30T00:45:46;5.68;;;3.40;;
80700;SDS011;71609;42.630;23.380;2023-08-30T00:48:13;6.18;;;3.72;;
80700;SDS011;71609;42.630;23.380;2023-08-30T00:50:41;6.75;;;3.40;;
80700;SDS011;71609;42.630;23.380;2023-08-30T00:53:07;7.90;;;3.35;;
80700;SDS011;71609;42.630;23.380;2023-08-30T00:55:35;7.95;;;3.55;;
80700;SDS011;71609;42.630;23.380;2023-08-30T00:58:01;8.70;;;4.03;;
80700;SDS011;71609;42.630;23.380;2023-08-30T01:00:28;7.18;;;3.63;;
80700;SDS011;71609;42.630;23.380;2023-08-30T01:05:22;8.02;;;3.60;;
80700;SDS011;71609;42.630;23.380;2023-08-30T01:07:49;7.03;;;3.30;;
80700;SDS011;71609;42.630;23.380;2023-08-30T01:10:18;6.05;;;3.35;;
80700;SDS011;71609;42.630;23.380;2023-08-30T01:12:53;5.75;;;3.38;;
80700;SDS011;71609;42.630;23.380;2023-08-30T01:15:29;6.47;;;3.17;;
80700;SDS011;71609;42.630;23.380;2023-08-30T01:17:55;7.53;;;3.50;;
80700;SDS011;71609;42.630;23.380;2023-08-30T01:20:22;8.38;;;3.40;;
80700;SDS011;71609;42.630;23.380;2023-08-30T01:28:03;5.78;;;3.00;;
80700;SDS011;71609;42.630;23.380;2023-08-30T01:30:31;5.40;;;3.25;;
80700;SDS011;71609;42.630;23.380;2023-08-30T01:32:59;5.85;;;3.45;;
80700;SDS011;71609;42.630;23.380;2023-08-30T01:35:26;6.55;;;3.58;;
80700;SDS011;71609;42.630;23.380;2023-08-30T01:38:01;5.47;;;3.03;;
80700;SDS011;71609;42.630;23.380;2023-08-30T01:40:33;5.45;;;3.30;;
80700;SDS011;71609;42.630;23.380;2023-08-30T01:43:02;5.30;;;3.13;;
80700;SDS011;71609;42.630;23.380;2023-08-30T01:45:30;6.00;;;3.00;;
80700;SDS011;71609;42.630;23.380;2023-08-30T01:48:01;5.43;;;3.08;;
80700;SDS011;71609;42.630;23.380;2023-08-30T01:50:28;6.13;;;3.33;;
80700;SDS011;71609;42.630;23.380;2023-08-30T01:52:54;6.30;;;3.17;;
80700;SDS011;71609;42.630;23.380;2023-08-30T01:55:21;7.20;;;3.63;;
80700;SDS011;71609;42.630;23.380;2023-08-30T01:57:48;6.55;;;3.53;;
80700;SDS011;71609;42.630;23.380;2023-08-30T02:00:14;6.55;;;3.40;;
80700;SDS011;71609;42.630;23.380;2023-08-30T02:02:40;6.50;;;3.50;;
80700;SDS011;71609;42.630;23.380;2023-08-30T02:05:06;6.43;;;3.40;;
80700;SDS011;71609;42.630;23.380;2023-08-30T02:10:17;8.05;;;3.58;;
80700;SDS011;71609;42.630;23.380;2023-08-30T02:12:49;5.90;;;3.08;;
80700;SDS011;71609;42.630;23.380;2023-08-30T02:15:17;6.75;;;3.22;;
80700;SDS011;71609;42.630;23.380;2023-08-30T02:17:44;5.75;;;3.20;;
80700;SDS011;71609;42.630;23.380;2023-08-30T02:20:11;6.40;;;3.35;;
80700;SDS011;71609;42.630;23.380;2023-08-30T02:22:37;8.18;;;3.42;;
80700;SDS011;71609;42.630;23.380;2023-08-30T02:25:03;10.98;;;3.60;;
80700;SDS011;71609;42.630;23.380;2023-08-30T02:27:32;5.50;;;3.20;;
80700;SDS011;71609;42.630;23.380;2023-08-30T02:29:58;7.95;;;3.60;;
80700;SDS011;71609;42.630;23.380;2023-08-30T02:32:24;7.68;;;3.55;;
80700;SDS011;71609;42.630;23.380;2023-08-30T02:34:51;6.32;;;3.53;;
80700;SDS011;71609;42.630;23.380;2023-08-30T02:37:18;6.30;;;3.45;;
80700;SDS011;71609;42.630;23.380;2023-08-30T02:39:44;7.88;;;3.42;;
80700;SDS011;71609;42.630;23.380;2023-08-30T02:42:09;7.75;;;3.40;;
80700;SDS011;71609;42.630;23.380;2023-08-30T02:44:35;7.00;;;3.45;;
80700;SDS011;71609;42.630;23.380;2023-08-30T02:47:01;6.80;;;3.30;;
80700;SDS011;71609;42.630;23.380;2023-08-30T02:49:26;7.72;;;3.50;;
80700;SDS011;71609;42.630;23.380;2023-08-30T02:51:52;5.88;;;3.30;;
80700;SDS011;71609;42.630;23.380;2023-08-30T02:54:18;6.25;;;3.33;;
80700;SDS011;71609;42.630;23.380;2023-08-30T02:56:43;6.63;;;3.40;;
80700;SDS011;71609;42.630;23.380;2023-08-30T02:59:10;8.57;;;3.65;;
80700;SDS011;71609;42.630;23.380;2023-08-30T03:01:36;7.47;;;3.33;;
80700;SDS011;71609;42.630;23.380;2023-08-30T03:04:04;6.05;;;3.08;;
80700;SDS011;71609;42.630;23.380;2023-08-30T03:06:30;6.18;;;3.47;;
80700;SDS011;71609;42.630;23.380;2023-08-30T03:08:57;7.88;;;3.80;;
80700;SDS011;71609;42.630;23.380;2023-08-30T03:11:22;6.63;;;3.78;;
80700;SDS011;71609;42.630;23.380;2023-08-30T03:13:48;6.80;;;3.17;;
80700;SDS011;71609;42.630;23.380;2023-08-30T03:16:14;5.53;;;2.92;;
80700;SDS011;71609;42.630;23.380;2023-08-30T03:18:41;6.85;;;3.30;;
80700;SDS011;71609;42.630;23.380;2023-08-30T03:21:07;10.05;;;3.53;;
80700;SDS011;71609;42.630;23.380;2023-08-30T03:23:33;6.32;;;3.40;;
80700;SDS011;71609;42.630;23.380;2023-08-30T03:26:07;7.63;;;3.42;;
80700;SDS011;71609;42.630;23.380;2023-08-30T03:28:40;6.40;;;3.33;;
80700;SDS011;71609;42.630;23.380;2023-08-30T03:31:13;6.05;;;3.28;;
80700;SDS011;71609;42.630;23.380;2023-08-30T03:33:39;6.05;;;3.05;;
80700;SDS011;71609;42.630;23.380;2023-08-30T03:36:06;5.53;;;3.28;;
80700;SDS011;71609;42.630;23.380;2023-08-30T03:38:34;8.27;;;3.35;;
80700;SDS011;71609;42.630;23.380;2023-08-30T03:40:59;7.25;;;3.35;;
80700;SDS011;71609;42.630;23.380;2023-08-30T03:43:25;5.75;;;3.05;;
80700;SDS011;71609;42.630;23.380;2023-08-30T03:45:51;5.97;;;3.25;;
80700;SDS011;71609;42.630;23.380;2023-08-30T03:48:17;7.60;;;3.40;;
80700;SDS011;71609;42.630;23.380;2023-08-30T03:50:43;7.50;;;3.47;;
80700;SDS011;71609;42.630;23.380;2023-08-30T03:53:08;5.55;;;3.30;;
80700;SDS011;71609;42.630;23.380;2023-08-30T03:55:34;6.78;;;3.30;;
80700;SDS011;71609;42.630;23.380;2023-08-30T03:58:00;5.93;;;3.40;;
80700;SDS011;71609;42.630;23.380;2023-08-30T04:00:25;5.88;;;3.35;;
80700;SDS011;71609;42.630;23.380;2023-08-30T04:02:51;5.20;;;3.25;;
80700;SDS011;71609;42.630;23.380;2023-08-30T04:05:17;6.30;;;3.20;;
80700;SDS011;71609;42.630;23.380;2023-08-30T04:07:42;5.45;;;3.20;;
80700;SDS011;71609;42.630;23.380;2023-08-30T04:10:08;7.57;;;3.30;;
80700;SDS011;71609;42.630;23.380;2023-08-30T04:12:34;6.97;;;3.17;;
80700;SDS011;71609;42.630;23.380;2023-08-30T04:15:03;8.48;;;3.30;;
80700;SDS011;71609;42.630;23.380;2023-08-30T04:19:55;7.30;;;3.03;;
80700;SDS011;71609;42.630;23.380;2023-08-30T04:22:20;6.05;;;3.40;;
80700;SDS011;71609;42.630;23.380;2023-08-30T04:24:46;6.78;;;3.28;;
80700;SDS011;71609;42.630;23.380;2023-08-30T04:27:14;6.97;;;3.45;;
80700;SDS011;71609;42.630;23.380;2023-08-30T04:29:39;5.97;;;3.10;;
80700;SDS011;71609;42.630;23.380;2023-08-30T04:32:05;6.13;;;3.45;;
80700;SDS011;71609;42.630;23.380;2023-08-30T04:34:31;5.97;;;3.25;;
80700;SDS011;71609;42.630;23.380;2023-08-30T04:36:57;5.55;;;3.03;;
80700;SDS011;71609;42.630;23.380;2023-08-30T04:39:23;6.05;;;3.20;;
80700;SDS011;71609;42.630;23.380;2023-08-30T04:41:49;7.28;;;3.17;;
80700;SDS011;71609;42.630;23.380;2023-08-30T04:44:14;5.43;;;3.25;;
80700;SDS011;71609;42.630;23.380;2023-08-30T04:46:41;7.10;;;3.30;;
80700;SDS011;71609;42.630;23.380;2023-08-30T04:49:06;4.93;;;2.70;;
80700;SDS011;71609;42.630;23.380;2023-08-30T04:51:32;7.22;;;3.10;;
80700;SDS011;71609;42.630;23.380;2023-08-30T04:53:58;5.28;;;3.13;;
80700;SDS011;71609;42.630;23.380;2023-08-30T04:56:23;6.53;;;3.15;;
80700;SDS011;71609;42.630;23.380;2023-08-30T04:58:49;6.97;;;3.25;;
80700;SDS011;71609;42.630;23.380;2023-08-30T05:01:15;4.22;;;2.40;;
80700;SDS011;71609;42.630;23.380;2023-08-30T05:03:41;5.47;;;2.90;;
80700;SDS011;71609;42.630;23.380;2023-08-30T05:06:07;5.65;;;3.15;;
80700;SDS011;71609;42.630;23.380;2023-08-30T05:08:33;5.95;;;3.10;;
80700;SDS011;71609;42.630;23.380;2023-08-30T05:10:59;7.30;;;3.20;;
80700;SDS011;71609;42.630;23.380;2023-08-30T05:13:24;5.90;;;3.38;;
80700;SDS011;71609;42.630;23.380;2023-08-30T05:15:50;5.00;;;2.90;;
80700;SDS011;71609;42.630;23.380;2023-08-30T05:18:16;6.10;;;3.15;;
80700;SDS011;71609;42.630;23.380;2023-08-30T05:20:43;6.30;;;3.05;;
80700;SDS011;71609;42.630;23.380;2023-08-30T05:23:09;6.30;;;3.30;;
80700;SDS011;71609;42.630;23.380;2023-08-30T05:25:35;7.18;;;3.42;;
80700;SDS011;71609;42.630;23.380;2023-08-30T05:28:00;6.22;;;3.08;;
80700;SDS011;71609;42.630;23.380;2023-08-30T05:30:26;6.93;;;3.15;;
80700;SDS011;71609;42.630;23.380;2023-08-30T05:32:52;4.78;;;2.70;;
80700;SDS011;71609;42.630;23.380;2023-08-30T05:35:18;8.05;;;3.03;;
80700;SDS011;71609;42.630;23.380;2023-08-30T05:37:43;5.80;;;2.78;;
80700;SDS011;71609;42.630;23.380;2023-08-30T05:40:09;5.88;;;2.90;;
80700;SDS011;71609;42.630;23.380;2023-08-30T05:42:35;6.00;;;3.20;;
80700;SDS011;71609;42.630;23.380;2023-08-30T05:45:01;8.13;;;2.80;;
80700;SDS011;71609;42.630;23.380;2023-08-30T05:47:27;6.57;;;3.38;;
80700;SDS011;71609;42.630;23.380;2023-08-30T05:49:53;5.65;;;3.40;;
80700;SDS011;71609;42.630;23.380;2023-08-30T05:52:18;4.78;;;2.90;;
80700;SDS011;71609;42.630;23.380;2023-08-30T05:54:44;8.38;;;3.00;;
80700;SDS011;71609;42.630;23.380;2023-08-30T05:57:10;6.15;;;2.92;;
80700;SDS011;71609;42.630;23.380;2023-08-30T05:59:35;5.32;;;3.00;;
80700;SDS011;71609;42.630;23.380;2023-08-30T06:02:01;5.30;;;2.85;;
80700;SDS011;71609;42.630;23.380;2023-08-30T06:04:27;6.15;;;3.03;;
80700;SDS011;71609;42.630;23.380;2023-08-30T06:06:53;5.80;;;2.90;;
80700;SDS011;71609;42.630;23.380;2023-08-30T06:09:18;6.28;;;3.05;;
80700;SDS011;71609;42.630;23.380;2023-08-30T06:11:44;6.93;;;3.10;;
80700;SDS011;71609;42.630;23.380;2023-08-30T06:14:09;6.07;;;2.65;;
80700;SDS011;71609;42.630;23.380;2023-08-30T06:16:35;7.82;;;3.10;;
80700;SDS011;71609;42.630;23.380;2023-08-30T06:19:01;4.93;;;2.80;;
80700;SDS011;71609;42.630;23.380;2023-08-30T06:21:27;5.63;;;2.95;;
80700;SDS011;71609;42.630;23.380;2023-08-30T06:23:53;5.97;;;3.00;;
80700;SDS011;71609;42.630;23.380;2023-08-30T06:26:18;5.15;;;2.55;;
80700;SDS011;71609;42.630;23.380;2023-08-30T06:28:44;6.45;;;2.90;;
80700;SDS011;71609;42.630;23.380;2023-08-30T06:31:10;9.25;;;2.95;;
80700;SDS011;71609;42.630;23.380;2023-08-30T06:33:36;4.93;;;2.50;;
80700;SDS011;71609;42.630;23.380;2023-08-30T06:36:03;4.97;;;2.60;;
80700;SDS011;71609;42.630;23.380;2023-08-30T06:38:29;5.35;;;2.50;;
80700;SDS011;71609;42.630;23.380;2023-08-30T06:40:57;4.90;;;2.60;;
80700;SDS011;71609;42.630;23.380;2023-08-30T06:43:23;5.45;;;2.70;;
80700;SDS011;71609;42.630;23.380;2023-08-30T06:45:49;4.50;;;2.60;;
80700;SDS011;71609;42.630;23.380;2023-08-30T06:48:14;5.15;;;2.90;;
80700;SDS011;71609;42.630;23.380;2023-08-30T06:50:40;6.03;;;2.60;;
80700;SDS011;71609;42.630;23.380;2023-08-30T06:53:06;5.72;;;2.47;;
80700;SDS011;71609;42.630;23.380;2023-08-30T06:55:31;5.88;;;2.63;;
80700;SDS011;71609;42.630;23.380;2023-08-30T06:57:58;4.50;;;2.25;;
80700;SDS011;71609;42.630;23.380;2023-08-30T07:00:24;4.28;;;2.47;;
80700;SDS011;71609;42.630;23.380;2023-08-30T07:02:49;5.22;;;2.63;;
80700;SDS011;71609;42.630;23.380;2023-08-30T07:05:15;5.32;;;2.40;;
80700;SDS011;71609;42.630;23.380;2023-08-30T07:07:41;5.05;;;2.45;;
80700;SDS011;71609;42.630;23.380;2023-08-30T07:10:07;4.95;;;2.35;;
80700;SDS011;71609;42.630;23.380;2023-08-30T07:12:33;5.07;;;2.45;;
80700;SDS011;71609;42.630;23.380;2023-08-30T07:14:58;4.25;;;2.35;;
80700;SDS011;71609;42.630;23.380;2023-08-30T07:17:24;4.80;;;2.42;;
80700;SDS011;71609;42.630;23.380;2023-08-30T07:19:50;5.45;;;2.75;;
80700;SDS011;71609;42.630;23.380;2023-08-30T07:22:15;6.13;;;2.85;;
80700;SDS011;71609;42.630;23.380;2023-08-30T07:24:42;7.20;;;2.63;;
80700;SDS011;71609;42.630;23.380;2023-08-30T07:27:08;6.30;;;2.67;;
80700;SDS011;71609;42.630;23.380;2023-08-30T07:29:34;4.65;;;2.60;;
80700;SDS011;71609;42.630;23.380;2023-08-30T07:32:00;4.47;;;2.20;;
80700;SDS011;71609;42.630;23.380;2023-08-30T07:34:25;6.43;;;2.80;;
80700;SDS011;71609;42.630;23.380;2023-08-30T07:36:53;5.53;;;2.22;;
80700;SDS011;71609;42.630;23.380;2023-08-30T07:39:20;4.45;;;2.40;;
80700;SDS011;71609;42.630;23.380;2023-08-30T07:41:46;6.07;;;2.40;;
80700;SDS011;71609;42.630;23.380;2023-08-30T07:44:12;5.55;;;2.45;;
80700;SDS011;71609;42.630;23.380;2023-08-30T07:46:37;4.93;;;2.38;;
80700;SDS011;71609;42.630;23.380;2023-08-30T07:49:03;5.63;;;2.45;;
80700;SDS011;71609;42.630;23.380;2023-08-30T07:51:28;4.35;;;2.30;;
80700;SDS011;71609;42.630;23.380;2023-08-30T07:53:54;5.72;;;2.63;;
80700;SDS011;71609;42.630;23.380;2023-08-30T07:56:20;4.68;;;2.00;;
80700;SDS011;71609;42.630;23.380;2023-08-30T07:58:45;4.72;;;2.22;;
80700;SDS011;71609;42.630;23.380;2023-08-30T08:01:11;4.43;;;2.20;;
80700;SDS011;71609;42.630;23.380;2023-08-30T08:03:37;4.88;;;2.28;;
80700;SDS011;71609;42.630;23.380;2023-08-30T08:06:02;4.85;;;2.30;;
80700;SDS011;71609;42.630;23.380;2023-08-30T08:08:28;4.28;;;2.00;;
80700;SDS011;71609;42.630;23.380;2023-08-30T08:10:54;4.10;;;2.33;;
80700;SDS011;71609;42.630;23.380;2023-08-30T08:13:20;4.13;;;2.28;;
80700;SDS011;71609;42.630;23.380;2023-08-30T08:15:45;4.53;;;2.30;;
80700;SDS011;71609;42.630;23.380;2023-08-30T08:18:11;4.97;;;2.50;;
80700;SDS011;71609;42.630;23.380;2023-08-30T08:20:37;4.93;;;2.42;;
80700;SDS011;71609;42.630;23.380;2023-08-30T08:23:04;4.32;;;2.15;;
80700;SDS011;71609;42.630;23.380;2023-08-30T08:25:30;3.60;;;2.10;;
80700;SDS011;71609;42.630;23.380;2023-08-30T08:27:55;6.72;;;2.53;;
80700;SDS011;71609;42.630;23.380;2023-08-30T08:30:21;4.35;;;2.17;;
80700;SDS011;71609;42.630;23.380;2023-08-30T08:32:47;3.78;;;2.17;;
80700;SDS011;71609;42.630;23.380;2023-08-30T08:35:13;4.40;;;2.17;;
80700;SDS011;71609;42.630;23.380;2023-08-30T08:37:39;4.25;;;2.25;;
80700;SDS011;71609;42.630;23.380;2023-08-30T08:40:05;5.47;;;2.30;;
80700;SDS011;71609;42.630;23.380;2023-08-30T08:42:33;4.10;;;2.05;;
80700;SDS011;71609;42.630;23.380;2023-08-30T08:45:00;3.67;;;2.10;;
80700;SDS011;71609;42.630;23.380;2023-08-30T08:47:29;3.67;;;2.08;;
80700;SDS011;71609;42.630;23.380;2023-08-30T08:49:56;4.93;;;2.33;;
80700;SDS011;71609;42.630;23.380;2023-08-30T08:52:25;3.83;;;2.10;;
80700;SDS011;71609;42.630;23.380;2023-08-30T08:57:17;3.75;;;2.10;;
80700;SDS011;71609;42.630;23.380;2023-08-30T08:59:43;4.28;;;2.05;;
80700;SDS011;71609;42.630;23.380;2023-08-30T09:02:10;4.00;;;2.10;;
80700;SDS011;71609;42.630;23.380;2023-08-30T09:04:38;3.97;;;2.10;;
80700;SDS011;71609;42.630;23.380;2023-08-30T09:07:05;4.80;;;2.10;;
80700;SDS011;71609;42.630;23.380;2023-08-30T09:09:31;4.40;;;1.98;;
80700;SDS011;71609;42.630;23.380;2023-08-30T09:11:58;5.40;;;2.50;;
80700;SDS011;71609;42.630;23.380;2023-08-30T09:14:24;4.82;;;2.33;;
80700;SDS011;71609;42.630;23.380;2023-08-30T09:16:59;3.83;;;2.17;;
80700;SDS011;71609;42.630;23.380;2023-08-30T09:19:26;5.18;;;2.13;;
80700;SDS011;71609;42.630;23.380;2023-08-30T09:21:56;5.63;;;2.38;;
80700;SDS011;71609;42.630;23.380;2023-08-30T09:24:23;4.30;;;2.10;;
80700;SDS011;71609;42.630;23.380;2023-08-30T09:26:50;4.85;;;2.00;;
80700;SDS011;71609;42.630;23.380;2023-08-30T09:29:17;4.20;;;2.10;;
80700;SDS011;71609;42.630;23.380;2023-08-30T09:31:44;3.83;;;2.10;;
80700;SDS011;71609;42.630;23.380;2023-08-30T09:34:11;4.35;;;2.38;;
80700;SDS011;71609;42.630;23.380;2023-08-30T09:36:37;4.13;;;2.15;;
80700;SDS011;71609;42.630;23.380;2023-08-30T09:39:14;3.72;;;1.95;;
80700;SDS011;71609;42.630;23.380;2023-08-30T09:44:12;3.65;;;2.20;;
80700;SDS011;71609;42.630;23.380;2023-08-30T09:47:02;4.78;;;2.30;;
80700;SDS011;71609;42.630;23.380;2023-08-30T09:49:28;4.55;;;2.22;;
80700;SDS011;71609;42.630;23.380;2023-08-30T09:51:55;3.20;;;1.95;;
80700;SDS011;71609;42.630;23.380;2023-08-30T09:54:24;4.00;;;2.03;;
80700;SDS011;71609;42.630;23.380;2023-08-30T09:56:50;3.97;;;2.15;;
80700;SDS011;71609;42.630;23.380;2023-08-30T09:59:18;4.00;;;2.13;;
80700;SDS011;71609;42.630;23.380;2023-08-30T10:01:44;3.78;;;2.08;;
80700;SDS011;71609;42.630;23.380;2023-08-30T10:04:13;4.55;;;2.05;;
80700;SDS011;71609;42.630;23.380;2023-08-30T10:06:40;3.95;;;2.30;;
80700;SDS011;71609;42.630;23.380;2023-08-30T10:09:06;6.43;;;2.35;;
80700;SDS011;71609;42.630;23.380;2023-08-30T10:11:34;4.80;;;1.92;;
80700;SDS011;71609;42.630;23.380;2023-08-30T10:14:04;3.03;;;1.77;;
80700;SDS011;71609;42.630;23.380;2023-08-30T10:16:41;3.65;;;2.00;;
80700;SDS011;71609;42.630;23.380;2023-08-30T10:19:10;5.70;;;2.10;;
80700;SDS011;71609;42.630;23.380;2023-08-30T10:21:40;3.35;;;1.95;;
80700;SDS011;71609;42.630;23.380;2023-08-30T10:24:09;4.00;;;2.25;;
80700;SDS011;71609;42.630;23.380;2023-08-30T10:26:39;4.25;;;2.20;;
80700;SDS011;71609;42.630;23.380;2023-08-30T10:31:34;4.63;;;2.28;;
80700;SDS011;71609;42.630;23.380;2023-08-30T10:33:59;3.40;;;1.85;;
80700;SDS011;71609;42.630;23.380;2023-08-30T10:36:26;4.25;;;2.10;;
80700;SDS011;71609;42.630;23.380;2023-08-30T10:38:55;3.85;;;1.95;;
80700;SDS011;71609;42.630;23.380;2023-08-30T10:41:21;6.75;;;2.28;;
80700;SDS011;71609;42.630;23.380;2023-08-30T10:43:49;4.47;;;2.05;;
80700;SDS011;71609;42.630;23.380;2023-08-30T10:46:33;4.60;;;2.22;;
80700;SDS011;71609;42.630;23.380;2023-08-30T10:49:13;4.18;;;2.10;;
80700;SDS011;71609;42.630;23.380;2023-08-30T10:51:39;4.25;;;2.13;;
80700;SDS011;71609;42.630;23.380;2023-08-30T10:54:13;3.80;;;2.17;;
80700;SDS011;71609;42.630;23.380;2023-08-30T10:56:56;3.67;;;2.10;;
80700;SDS011;71609;42.630;23.380;2023-08-30T10:59:26;4.20;;;1.95;;
80700;SDS011;71609;42.630;23.380;2023-08-30T11:01:52;5.05;;;2.40;;
80700;SDS011;71609;42.630;23.380;2023-08-30T11:04:19;4.25;;;1.77;;
80700;SDS011;71609;42.630;23.380;2023-08-30T11:06:45;4.43;;;2.10;;
80700;SDS011;71609;42.630;23.380;2023-08-30T11:09:12;3.80;;;2.00;;
80700;SDS011;71609;42.630;23.380;2023-08-30T11:11:39;5.03;;;2.50;;
80700;SDS011;71609;42.630;23.380;2023-08-30T11:14:06;4.45;;;2.20;;
80700;SDS011;71609;42.630;23.380;2023-08-30T11:16:33;4.60;;;2.08;;
80700;SDS011;71609;42.630;23.380;2023-08-30T11:19:00;3.40;;;2.20;;
80700;SDS011;71609;42.630;23.380;2023-08-30T11:21:28;4.13;;;2.03;;
80700;SDS011;71609;42.630;23.380;2023-08-30T11:23:56;4.40;;;2.28;;
80700;SDS011;71609;42.630;23.380;2023-08-30T11:26:22;4.00;;;2.03;;
80700;SDS011;71609;42.630;23.380;2023-08-30T11:28:48;4.97;;;2.17;;
80700;SDS011;71609;42.630;23.380;2023-08-30T11:31:20;3.65;;;1.90;;
80700;SDS011;71609;42.630;23.380;2023-08-30T11:33:53;3.97;;;2.10;;
80700;SDS011;71609;42.630;23.380;2023-08-30T11:36:21;3.83;;;1.80;;
80700;SDS011;71609;42.630;23.380;2023-08-30T11:38:48;3.70;;;1.90;;
80700;SDS011;71609;42.630;23.380;2023-08-30T11:41:17;3.63;;;1.90;;
80700;SDS011;71609;42.630;23.380;2023-08-30T11:43:44;4.50;;;2.10;;
80700;SDS011;71609;42.630;23.380;2023-08-30T11:46:10;4.22;;;1.92;;
80700;SDS011;71609;42.630;23.380;2023-08-30T11:48:37;4.30;;;2.20;;
80700;SDS011;71609;42.630;23.380;2023-08-30T11:51:06;4.07;;;2.03;;
80700;SDS011;71609;42.630;23.380;2023-08-30T11:53:33;4.57;;;2.05;;
80700;SDS011;71609;42.630;23.380;2023-08-30T11:55:59;5.78;;;2.10;;
80700;SDS011;71609;42.630;23.380;2023-08-30T11:58:26;4.45;;;2.15;;
80700;SDS011;71609;42.630;23.380;2023-08-30T12:00:52;2.88;;;1.95;;
80700;SDS011;71609;42.630;23.380;2023-08-30T12:03:22;4.25;;;1.90;;
80700;SDS011;71609;42.630;23.380;2023-08-30T12:05:48;3.92;;;2.10;;
80700;SDS011;71609;42.630;23.380;2023-08-30T12:08:32;4.18;;;2.00;;
80700;SDS011;71609;42.630;23.380;2023-08-30T12:10:58;5.10;;;2.17;;
80700;SDS011;71609;42.630;23.380;2023-08-30T12:13:28;3.53;;;2.08;;
80700;SDS011;71609;42.630;23.380;2023-08-30T12:15:55;5.57;;;2.47;;
80700;SDS011;71609;42.630;23.380;2023-08-30T12:18:25;3.75;;;2.10;;
80700;SDS011;71609;42.630;23.380;2023-08-30T12:20:57;4.55;;;1.98;;
80700;SDS011;71609;42.630;23.380;2023-08-30T12:23:25;3.72;;;2.00;;
80700;SDS011;71609;42.630;23.380;2023-08-30T12:28:24;4.40;;;2.00;;
80700;SDS011;71609;42.630;23.380;2023-08-30T12:30:50;3.97;;;2.00;;
80700;SDS011;71609;42.630;23.380;2023-08-30T12:33:16;4.00;;;1.80;;
80700;SDS011;71609;42.630;23.380;2023-08-30T12:35:43;4.75;;;2.55;;
80700;SDS011;71609;42.630;23.380;2023-08-30T12:38:09;4.68;;;2.38;;
80700;SDS011;71609;42.630;23.380;2023-08-30T12:40:36;6.45;;;2.40;;
80700;SDS011;71609;42.630;23.380;2023-08-30T12:43:03;4.65;;;2.35;;
80700;SDS011;71609;42.630;23.380;2023-08-30T12:45:29;4.60;;;1.90;;
80700;SDS011;71609;42.630;23.380;2023-08-30T12:47:54;4.43;;;2.15;;
80700;SDS011;71609;42.630;23.380;2023-08-30T12:50:23;5.72;;;1.98;;
80700;SDS011;71609;42.630;23.380;2023-08-30T12:52:49;4.05;;;2.08;;
80700;SDS011;71609;42.630;23.380;2023-08-30T12:55:14;4.03;;;2.00;;
80700;SDS011;71609;42.630;23.380;2023-08-30T12:57:42;4.32;;;2.10;;
80700;SDS011;71609;42.630;23.380;2023-08-30T13:00:11;3.08;;;1.80;;
80700;SDS011;71609;42.630;23.380;2023-08-30T13:02:37;3.30;;;2.00;;
80700;SDS011;71609;42.630;23.380;2023-08-30T13:05:03;3.90;;;2.20;;
80700;SDS011;71609;42.630;23.380;2023-08-30T13:07:29;3.55;;;2.15;;
80700;SDS011;71609;42.630;23.380;2023-08-30T13:09:55;4.30;;;2.13;;
80700;SDS011;71609;42.630;23.380;2023-08-30T13:12:21;4.53;;;2.65;;
80700;SDS011;71609;42.630;23.380;2023-08-30T13:14:46;4.88;;;2.40;;
80700;SDS011;71609;42.630;23.380;2023-08-30T13:17:12;4.18;;;2.30;;
80700;SDS011;71609;42.630;23.380;2023-08-30T13:19:38;4.47;;;2.20;;
80700;SDS011;71609;42.630;23.380;2023-08-30T13:22:04;4.68;;;2.13;;
80700;SDS011;71609;42.630;23.380;2023-08-30T13:24:29;3.47;;;1.95;;
80700;SDS011;71609;42.630;23.380;2023-08-30T13:26:57;4.72;;;2.60;;
80700;SDS011;71609;42.630;23.380;2023-08-30T13:29:23;3.78;;;2.10;;
80700;SDS011;71609;42.630;23.380;2023-08-30T13:31:49;4.13;;;2.05;;
80700;SDS011;71609;42.630;23.380;2023-08-30T13:34:14;4.57;;;2.42;;
80700;SDS011;71609;42.630;23.380;2023-08-30T13:36:40;4.05;;;2.08;;
80700;SDS011;71609;42.630;23.380;2023-08-30T13:39:05;4.47;;;2.25;;
80700;SDS011;71609;42.630;23.380;2023-08-30T13:41:31;3.90;;;2.05;;
80700;SDS011;71609;42.630;23.380;2023-08-30T13:43:57;4.68;;;2.42;;
80700;SDS011;71609;42.630;23.380;2023-08-30T13:46:23;5.43;;;1.98;;
80700;SDS011;71609;42.630;23.380;2023-08-30T13:48:48;4.43;;;2.20;;
80700;SDS011;71609;42.630;23.380;2023-08-30T13:51:14;4.80;;;2.05;;
80700;SDS011;71609;42.630;23.380;2023-08-30T13:53:45;3.60;;;2.00;;
80700;SDS011;71609;42.630;23.380;2023-08-30T13:56:11;3.72;;;1.83;;
80700;SDS011;71609;42.630;23.380;2023-08-30T13:58:37;3.30;;;2.00;;
80700;SDS011;71609;42.630;23.380;2023-08-30T14:01:03;3.67;;;1.90;;
80700;SDS011;71609;42.630;23.380;2023-08-30T14:03:29;4.25;;;2.17;;
80700;SDS011;71609;42.630;23.380;2023-08-30T14:05:56;3.80;;;2.03;;
80700;SDS011;71609;42.630;23.380;2023-08-30T14:08:22;3.78;;;2.08;;
80700;SDS011;71609;42.630;23.380;2023-08-30T14:10:47;4.28;;;2.40;;
80700;SDS011;71609;42.630;23.380;2023-08-30T14:13:13;5.05;;;2.40;;
80700;SDS011;71609;42.630;23.380;2023-08-30T14:15:40;5.13;;;2.42;;
80700;SDS011;71609;42.630;23.380;2023-08-30T14:18:07;4.32;;;2.22;;
80700;SDS011;71609;42.630;23.380;2023-08-30T14:20:33;4.50;;;2.53;;
80700;SDS011;71609;42.630;23.380;2023-08-30T14:22:58;4.25;;;2.10;;
80700;SDS011;71609;42.630;23.380;2023-08-30T14:25:24;3.85;;;2.25;;
80700;SDS011;71609;42.630;23.380;2023-08-30T14:27:50;3.60;;;2.20;;
80700;SDS011;71609;42.630;23.380;2023-08-30T14:30:15;3.55;;;1.90;;
80700;SDS011;71609;42.630;23.380;2023-08-30T14:32:41;4.72;;;2.13;;
80700;SDS011;71609;42.630;23.380;2023-08-30T14:35:07;4.03;;;2.33;;
80700;SDS011;71609;42.630;23.380;2023-08-30T14:37:33;3.58;;;2.00;;
80700;SDS011;71609;42.630;23.380;2023-08-30T14:40:05;4.10;;;1.88;;
80700;SDS011;71609;42.630;23.380;2023-08-30T14:42:32;4.20;;;2.20;;
80700;SDS011;71609;42.630;23.380;2023-08-30T14:44:58;4.05;;;2.47;;
80700;SDS011;71609;42.630;23.380;2023-08-30T14:47:24;6.07;;;2.30;;
80700;SDS011;71609;42.630;23.380;2023-08-30T14:49:49;5.03;;;2.70;;
80700;SDS011;71609;42.630;23.380;2023-08-30T14:52:15;6.38;;;2.30;;
80700;SDS011;71609;42.630;23.380;2023-08-30T14:54:41;4.10;;;2.05;;
80700;SDS011;71609;42.630;23.380;2023-08-30T14:57:07;3.92;;;2.13;;